Time;durP1;ratioP1;P1;durP2;ratioP2;P2;SDS_P1;SDS_P2;PMS_P1;PMS_P2;Temp;Humidity;BMP_temperature;BMP_pressure;BME280_temperature;BME280_humidity;BME280_pressure;Samples;Min_cycle;Max_cycle;Signal;HPM_P1;HPM_P2
2023/11/16 00:01:13;;;;;;;2.83;0.98;;;14.40;65.10;15.90;101289.00;;;;5006388;28;20225;-75
2023/11/16 00:03:41;;;;;;;3.55;1.08;;;14.30;65.00;15.90;101291.00;;;;5007128;28;20201;-76
2023/11/16 00:06:10;;;;;;;5.38;0.85;;;14.40;65.00;15.80;101304.00;;;;5006257;28;20267;-76
2023/11/16 00:08:38;;;;;;;3.63;0.55;;;14.30;65.00;15.80;101304.00;;;;5006815;28;20193;-76
2023/11/16 00:11:08;;;;;;;3.67;0.70;;;14.40;65.00;15.80;101305.00;;;;5009030;28;20235;-76
2023/11/16 00:13:38;;;;;;;2.90;0.77;;;14.30;65.00;15.80;101298.00;;;;5011093;28;20303;-75
2023/11/16 00:16:07;;;;;;;3.28;1.20;;;14.30;65.00;15.80;101302.00;;;;5009954;28;20204;-76
2023/11/16 00:18:34;;;;;;;5.47;1.20;;;14.30;65.00;15.80;101302.00;;;;5004769;28;20193;-75
2023/11/16 00:21:01;;;;;;;1.58;0.50;;;14.30;65.00;15.80;101306.00;;;;5011617;28;20197;-76
2023/11/16 00:23:28;;;;;;;5.57;1.00;;;14.30;65.10;15.90;101304.00;;;;5010382;28;20577;-76
2023/11/16 00:25:58;;;;;;;3.15;0.77;;;14.30;65.10;15.90;101305.00;;;;5010262;28;20211;-76
2023/11/16 00:28:26;;;;;;;5.22;0.68;;;14.30;65.10;15.90;101306.00;;;;5006899;28;20227;-76
2023/11/16 00:30:54;;;;;;;5.40;0.80;;;14.30;65.10;15.90;101307.00;;;;5008011;28;20579;-76
2023/11/16 00:33:21;;;;;;;1.45;0.50;;;14.30;65.10;15.90;101303.00;;;;5008472;28;20197;-76
2023/11/16 00:35:49;;;;;;;2.95;0.68;;;14.30;65.20;15.90;101322.00;;;;5008422;28;20213;-76
2023/11/16 00:38:16;;;;;;;2.85;0.70;;;14.30;65.20;15.90;101317.00;;;;5010815;28;21098;-76
2023/11/16 00:40:46;;;;;;;1.55;0.50;;;14.40;65.30;15.90;101321.00;;;;5009916;28;20195;-76
2023/11/16 00:43:13;;;;;;;5.85;0.70;;;14.30;65.30;15.90;101323.00;;;;5009630;28;20201;-76
2023/11/16 00:45:41;;;;;;;2.38;0.80;;;14.40;65.40;15.90;101318.00;;;;5009560;28;20258;-76
2023/11/16 00:48:09;;;;;;;2.38;0.70;;;14.30;65.50;15.90;101313.00;;;;5011130;28;20299;-76
2023/11/16 00:50:37;;;;;;;4.95;0.88;;;14.30;65.50;15.90;101323.00;;;;5010556;28;20196;-76
2023/11/16 00:53:05;;;;;;;4.25;0.60;;;14.30;65.60;15.90;101335.00;;;;5008735;28;20578;-76
2023/11/16 00:55:32;;;;;;;3.83;0.85;;;14.30;65.80;15.90;101334.00;;;;5008846;28;20200;-76
2023/11/16 00:58:00;;;;;;;2.88;0.80;;;14.30;65.80;15.90;101331.00;;;;5009455;28;20250;-76
2023/11/16 01:00:28;;;;;;;1.50;0.50;;;14.30;65.90;15.80;101334.00;;;;5008330;28;20301;-76
2023/11/16 01:02:56;;;;;;;7.03;0.80;;;14.30;66.00;15.80;101342.00;;;;5009175;28;20199;-76
2023/11/16 01:05:25;;;;;;;4.05;0.70;;;14.20;66.10;15.80;101342.00;;;;5008698;28;20197;-76
2023/11/16 01:07:52;;;;;;;1.65;0.68;;;14.20;66.20;15.80;101345.00;;;;5009859;28;20227;-76
2023/11/16 01:10:23;;;;;;;3.47;0.60;;;14.20;66.40;15.80;101346.00;;;;5009298;28;20193;-76
2023/11/16 01:12:51;;;;;;;0.82;0.45;;;14.20;66.50;15.80;101350.00;;;;5009293;28;20197;-76
2023/11/16 01:15:20;;;;;;;2.45;0.50;;;14.10;66.60;15.80;101345.00;;;;5005772;28;20263;-76
2023/11/16 01:17:48;;;;;;;1.73;0.75;;;14.10;66.70;15.80;101360.00;;;;4991528;28;20272;-76
2023/11/16 01:20:19;;;;;;;4.88;0.93;;;14.10;66.80;15.80;101357.00;;;;5000917;28;20197;-76
2023/11/16 01:23:00;;;;;;;2.38;0.50;;;14.10;66.90;15.80;101357.00;;;;5009578;28;20244;-76
2023/11/16 01:25:28;;;;;;;3.53;0.85;;;14.10;67.10;15.80;101355.00;;;;5008195;28;20715;-77
2023/11/16 01:27:57;;;;;;;3.28;0.80;;;14.10;67.10;15.80;101358.00;;;;5010297;28;20315;-76
2023/11/16 01:30:24;;;;;;;0.98;0.40;;;14.10;67.20;15.80;101345.00;;;;5008440;28;20212;-76
2023/11/16 01:32:52;;;;;;;1.92;0.60;;;14.10;67.20;15.80;101352.00;;;;5009922;28;20217;-76
2023/11/16 01:35:21;;;;;;;1.75;0.95;;;14.10;67.40;15.80;101351.00;;;;5009278;28;20205;-76
2023/11/16 01:37:52;;;;;;;0.77;0.43;;;14.10;67.40;15.80;101345.00;;;;5009910;28;20193;-76
2023/11/16 01:40:19;;;;;;;3.65;0.90;;;14.10;67.40;15.80;101357.00;;;;5008815;28;20209;-76
2023/11/16 01:42:47;;;;;;;1.38;0.40;;;14.10;67.40;15.80;101363.00;;;;5008119;28;20238;-76
2023/11/16 01:45:31;;;;;;;1.13;0.38;;;14.10;67.40;15.70;101365.00;;;;5008999;28;20197;-76
2023/11/16 01:48:02;;;;;;;1.83;0.60;;;14.10;67.70;15.80;101362.00;;;;5008870;28;20223;-76
2023/11/16 01:50:32;;;;;;;0.60;0.50;;;14.10;67.50;15.80;101358.00;;;;5008225;28;20597;-76
2023/11/16 01:53:06;;;;;;;2.40;0.50;;;14.10;67.50;15.80;101359.00;;;;5007898;28;20251;-76
2023/11/16 01:55:35;;;;;;;3.30;0.32;;;14.10;67.50;15.80;101364.00;;;;5008643;28;20193;-76
2023/11/16 01:58:05;;;;;;;1.13;0.35;;;14.10;67.50;15.80;101362.00;;;;5008198;28;20260;-76
2023/11/16 02:00:34;;;;;;;2.38;0.82;;;14.10;67.60;15.80;101361.00;;;;5007493;28;20208;-76
2023/11/16 02:03:04;;;;;;;1.17;0.22;;;14.10;67.60;15.80;101363.00;;;;5008393;28;20608;-76
2023/11/16 02:05:33;;;;;;;6.03;0.40;;;14.10;67.70;15.80;101366.00;;;;5008379;28;20930;-76
2023/11/16 02:08:04;;;;;;;2.33;0.35;;;14.00;67.60;15.80;101372.00;;;;5006627;28;20221;-75
2023/11/16 02:10:31;;;;;;;1.55;0.40;;;14.10;67.70;15.80;101367.00;;;;5007030;28;20699;-76
2023/11/16 02:13:00;;;;;;;1.65;0.25;;;14.10;67.70;15.80;101367.00;;;;5009526;28;20197;-76
2023/11/16 02:15:29;;;;;;;1.52;0.15;;;14.10;67.70;15.80;101363.00;;;;5008725;28;20242;-76
2023/11/16 02:17:56;;;;;;;3.83;0.20;;;14.00;67.70;15.80;101358.00;;;;5008914;28;21011;-76
2023/11/16 02:20:25;;;;;;;1.02;0.30;;;14.00;67.70;15.80;101367.00;;;;5008086;28;20663;-76
2023/11/16 02:22:54;;;;;;;2.15;0.40;;;14.00;67.70;15.80;101365.00;;;;5008635;28;20185;-76
2023/11/16 02:25:26;;;;;;;2.35;0.30;;;14.00;67.70;15.80;101360.00;;;;5007313;28;20754;-76
2023/11/16 02:27:54;;;;;;;3.20;0.30;;;14.00;67.80;15.80;101366.00;;;;5004999;28;20711;-76
2023/11/16 02:30:22;;;;;;;3.03;0.30;;;14.00;67.80;15.80;101363.00;;;;5005421;28;20205;-76
2023/11/16 02:32:50;;;;;;;1.75;0.40;;;14.00;67.80;15.80;101360.00;;;;5006521;28;20267;-76
2023/11/16 02:35:17;;;;;;;4.30;0.30;;;14.00;67.90;15.80;101373.00;;;;5008712;28;20197;-76
2023/11/16 02:37:44;;;;;;;1.45;0.30;;;14.00;67.80;15.80;101361.00;;;;5008818;28;20663;-76
2023/11/16 02:40:16;;;;;;;2.33;0.47;;;14.00;67.80;15.80;101360.00;;;;5007982;28;20205;-76
2023/11/16 02:42:47;;;;;;;1.42;0.17;;;14.00;67.90;15.80;101351.00;;;;5006020;28;20196;-76
2023/11/16 02:45:16;;;;;;;4.30;0.35;;;14.00;67.90;15.80;101357.00;;;;5008326;28;20723;-76
2023/11/16 02:47:43;;;;;;;3.45;0.32;;;14.00;67.90;15.80;101356.00;;;;5007942;28;20228;-76
2023/11/16 02:50:10;;;;;;;1.02;0.17;;;14.00;67.90;15.70;101364.00;;;;5003280;28;20223;-76
2023/11/16 02:52:37;;;;;;;2.50;0.45;;;14.00;67.90;15.80;101361.00;;;;5007086;28;20200;-76
2023/11/16 02:55:05;;;;;;;1.88;0.35;;;14.00;67.90;15.70;101357.00;;;;5007355;28;20215;-76
2023/11/16 02:57:32;;;;;;;2.88;0.50;;;13.90;67.90;15.70;101351.00;;;;5007464;28;20195;-76
2023/11/16 03:00:01;;;;;;;0.88;0.40;;;14.00;68.00;15.70;101346.00;;;;5006820;28;20205;-76
2023/11/16 03:02:28;;;;;;;1.75;0.20;;;13.90;67.90;15.70;101348.00;;;;5007681;28;20201;-76
2023/11/16 03:04:55;;;;;;;1.20;0.50;;;13.90;67.90;15.70;101341.00;;;;5007693;28;20655;-76
2023/11/16 03:07:22;;;;;;;0.77;0.32;;;13.90;67.90;15.70;101342.00;;;;5008421;28;20224;-76
2023/11/16 03:09:49;;;;;;;4.78;0.40;;;13.90;67.90;15.70;101339.00;;;;5007257;28;20197;-76
2023/11/16 03:12:18;;;;;;;2.40;0.43;;;13.90;68.00;15.60;101335.00;;;;5007019;28;20227;-76
2023/11/16 03:14:45;;;;;;;1.55;0.30;;;13.90;67.90;15.60;101332.00;;;;5007283;28;20205;-76
2023/11/16 03:17:13;;;;;;;1.40;0.30;;;13.90;67.90;15.60;101338.00;;;;5007478;28;20200;-76
2023/11/16 03:19:42;;;;;;;1.52;0.35;;;13.90;67.90;15.60;101334.00;;;;5005263;28;20227;-76
2023/11/16 03:22:10;;;;;;;1.05;0.20;;;13.80;67.80;15.60;101337.00;;;;5007916;28;20193;-76
2023/11/16 03:24:38;;;;;;;1.33;0.30;;;13.80;67.80;15.50;101340.00;;;;5006893;28;20201;-76
2023/11/16 03:27:05;;;;;;;2.50;0.30;;;13.80;67.80;15.50;101336.00;;;;5008577;28;20223;-76
2023/11/16 03:29:34;;;;;;;1.20;0.30;;;13.70;67.70;15.50;101345.00;;;;5006347;28;20197;-76
2023/11/16 03:32:01;;;;;;;2.97;0.57;;;13.70;67.70;15.50;101360.00;;;;5005874;28;20217;-76
2023/11/16 03:34:29;;;;;;;2.35;0.30;;;13.70;67.80;15.50;101351.00;;;;5007822;28;20201;-76
2023/11/16 03:36:56;;;;;;;0.90;0.40;;;13.70;67.80;15.50;101356.00;;;;5008587;28;20189;-76
2023/11/16 03:39:23;;;;;;;1.13;0.40;;;13.70;67.90;15.40;101346.00;;;;5006383;28;20686;-76
2023/11/16 03:41:50;;;;;;;0.85;0.30;;;13.70;68.00;15.40;101348.00;;;;5006212;28;20203;-76
2023/11/16 03:44:17;;;;;;;2.92;0.85;;;13.60;67.90;15.40;101346.00;;;;5014379;28;20197;-76
2023/11/16 03:46:45;;;;;;;2.75;0.40;;;13.60;67.90;15.40;101348.00;;;;5011155;28;20521;-76
2023/11/16 03:49:14;;;;;;;1.42;0.32;;;13.60;68.00;15.40;101338.00;;;;5010580;28;20595;-76
2023/11/16 03:51:42;;;;;;;4.68;0.30;;;13.60;68.10;15.40;101329.00;;;;5009227;28;20197;-76
2023/11/16 03:54:09;;;;;;;0.90;0.43;;;13.60;68.00;15.40;101331.00;;;;5009829;28;20219;-76
2023/11/16 03:56:36;;;;;;;3.22;0.40;;;13.60;68.00;15.30;101337.00;;;;5011156;28;20726;-76
2023/11/16 03:59:04;;;;;;;1.38;0.43;;;13.50;68.00;15.30;101336.00;;;;5010428;28;20219;-77
2023/11/16 04:01:35;;;;;;;5.40;0.65;;;13.50;68.10;15.30;101337.00;;;;5015966;28;20203;-75
2023/11/16 04:04:02;;;;;;;1.83;0.35;;;13.50;68.10;15.30;101341.00;;;;5010818;28;20201;-76
2023/11/16 04:06:29;;;;;;;5.05;0.43;;;13.50;68.00;15.30;101332.00;;;;5009613;28;20203;-76
2023/11/16 04:08:58;;;;;;;0.40;0.20;;;13.40;67.90;15.20;101336.00;;;;5009688;28;20690;-75
2023/11/16 04:11:25;;;;;;;2.17;0.50;;;13.40;67.90;15.20;101333.00;;;;5010631;28;20232;-75
2023/11/16 04:13:53;;;;;;;3.17;0.20;;;13.40;67.90;15.20;101324.00;;;;5009006;28;20205;-75
2023/11/16 04:16:23;;;;;;;2.95;0.60;;;13.40;67.90;15.10;101324.00;;;;5011223;28;20212;-76
2023/11/16 04:18:51;;;;;;;1.15;0.30;;;13.30;67.80;15.10;101315.00;;;;5018441;28;20193;-76
2023/11/16 04:21:20;;;;;;;1.35;0.32;;;13.30;67.80;15.10;101329.00;;;;5007307;28;20689;-76
2023/11/16 04:23:52;;;;;;;6.18;0.60;;;13.30;67.80;15.00;101332.00;;;;5010980;28;20231;-76
2023/11/16 04:26:21;;;;;;;1.25;0.30;;;13.30;67.80;15.00;101329.00;;;;5007639;28;20588;-76
2023/11/16 04:28:48;;;;;;;1.05;0.50;;;13.20;67.80;15.00;101332.00;;;;5009650;28;20235;-75
2023/11/16 04:31:15;;;;;;;1.65;0.38;;;13.20;67.80;15.00;101332.00;;;;5009983;28;20236;-76
2023/11/16 04:33:42;;;;;;;3.58;0.60;;;13.20;67.80;15.00;101319.00;;;;5009329;28;20247;-76
2023/11/16 04:36:16;;;;;;;1.65;0.20;;;13.20;67.80;14.90;101322.00;;;;5011298;28;20207;-76
2023/11/16 04:38:43;;;;;;;3.13;0.30;;;13.10;67.80;14.90;101322.00;;;;5010187;28;20299;-76
2023/11/16 04:41:10;;;;;;;1.35;0.30;;;13.10;67.80;14.90;101317.00;;;;5010584;28;20659;-76
2023/11/16 04:43:40;;;;;;;3.47;0.80;;;13.10;67.80;14.80;101319.00;;;;5009534;28;20648;-76
2023/11/16 04:46:11;;;;;;;1.58;0.40;;;13.10;67.80;14.80;101316.00;;;;4995062;28;20276;-76
2023/11/16 04:48:41;;;;;;;1.13;0.40;;;13.00;67.70;14.80;101321.00;;;;5007868;28;20220;-76
2023/11/16 04:51:09;;;;;;;1.38;0.38;;;12.90;67.70;14.70;101318.00;;;;5008717;28;20207;-75
2023/11/16 04:53:37;;;;;;;1.85;0.40;;;12.90;67.60;14.70;101320.00;;;;5010066;28;20208;-76
2023/11/16 04:56:06;;;;;;;6.05;0.60;;;12.90;67.60;14.70;101320.00;;;;5008800;28;20205;-75
2023/11/16 04:58:33;;;;;;;1.58;0.52;;;12.90;67.60;14.60;101315.00;;;;5009215;28;20220;-76
2023/11/16 05:01:03;;;;;;;0.90;0.50;;;12.80;67.60;14.60;101315.00;;;;5010136;28;20215;-76
2023/11/16 05:03:30;;;;;;;2.17;0.57;;;12.80;67.60;14.60;101323.00;;;;5010350;28;20601;-76
2023/11/16 05:05:57;;;;;;;0.70;0.40;;;12.70;67.60;14.50;101338.00;;;;5008878;28;20556;-76
2023/11/16 05:08:25;;;;;;;3.63;0.68;;;12.70;67.60;14.50;101341.00;;;;5009586;28;20253;-76
2023/11/16 05:10:53;;;;;;;1.40;0.60;;;12.70;67.70;14.50;101337.00;;;;5008624;28;20231;-76
2023/11/16 05:13:21;;;;;;;2.22;0.50;;;12.60;67.70;14.40;101332.00;;;;5008184;28;20853;-76
2023/11/16 05:15:48;;;;;;;1.50;0.32;;;12.60;67.80;14.40;101336.00;;;;5008170;28;20679;-75
2023/11/16 05:18:18;;;;;;;1.67;0.65;;;12.60;67.80;14.40;101325.00;;;;5009258;28;20186;-76
2023/11/16 05:20:46;;;;;;;1.55;0.73;;;12.60;67.80;14.40;101325.00;;;;5006652;28;20208;-76
2023/11/16 05:23:13;;;;;;;1.52;0.85;;;12.50;67.80;14.40;101329.00;;;;5009634;28;20295;-75
2023/11/16 05:25:44;;;;;;;1.13;0.50;;;12.50;67.90;14.30;101327.00;;;;5013943;28;20307;-76
2023/11/16 05:28:11;;;;;;;2.47;0.50;;;12.50;67.90;14.30;101317.00;;;;5009371;28;20229;-76
2023/11/16 05:30:39;;;;;;;3.35;1.58;;;12.50;68.00;14.30;101320.00;;;;5009833;28;20197;-76
2023/11/16 05:33:06;;;;;;;0.90;0.50;;;12.50;68.10;14.30;101325.00;;;;5009674;28;20728;-76
2023/11/16 05:35:35;;;;;;;0.85;0.47;;;12.40;68.00;14.30;101327.00;;;;5009591;28;21055;-76
2023/11/16 05:38:04;;;;;;;2.55;0.50;;;12.50;68.10;14.30;101323.00;;;;5007861;28;20255;-76
2023/11/16 05:40:31;;;;;;;3.03;0.60;;;12.40;68.00;14.30;101321.00;;;;5007307;28;20193;-76
2023/11/16 05:42:58;;;;;;;4.97;1.63;;;12.40;68.10;14.30;101319.00;;;;5010010;28;20197;-76
2023/11/16 05:45:25;;;;;;;4.53;0.90;;;12.40;68.10;14.30;101310.00;;;;5008842;28;20193;-76
2023/11/16 05:47:52;;;;;;;1.30;0.63;;;12.40;68.10;14.20;101310.00;;;;5009071;28;20670;-76
2023/11/16 05:50:22;;;;;;;7.25;1.55;;;12.40;68.20;14.20;101308.00;;;;5006351;28;20312;-76
2023/11/16 05:52:52;;;;;;;3.50;1.35;;;12.40;68.20;14.20;101307.00;;;;5007835;28;20691;-76
2023/11/16 05:55:20;;;;;;;4.75;0.80;;;12.40;68.20;14.20;101307.00;;;;5008769;28;20189;-76
2023/11/16 05:57:47;;;;;;;1.73;0.80;;;12.30;68.10;14.20;101311.00;;;;5009088;28;20213;-76
2023/11/16 06:00:16;;;;;;;3.65;1.17;;;12.30;68.20;14.20;101311.00;;;;5006982;28;20212;-76
2023/11/16 06:02:43;;;;;;;3.58;1.38;;;12.30;68.20;14.20;101310.00;;;;5007586;28;20223;-76
2023/11/16 06:05:11;;;;;;;3.78;1.48;;;12.40;68.30;14.20;101317.00;;;;5007881;28;20206;-76
2023/11/16 06:07:38;;;;;;;2.50;1.20;;;12.30;68.30;14.20;101310.00;;;;5007665;28;20201;-76
2023/11/16 06:10:10;;;;;;;3.38;1.38;;;12.30;68.30;14.20;101306.00;;;;5013931;28;20230;-76
2023/11/16 06:12:38;;;;;;;4.40;1.33;;;12.30;68.30;14.20;101310.00;;;;5004271;28;20566;-76
2023/11/16 06:15:07;;;;;;;3.85;1.40;;;12.30;68.40;14.20;101306.00;;;;5007203;28;20279;-76
2023/11/16 06:17:35;;;;;;;2.83;1.20;;;12.30;68.40;14.20;101311.00;;;;5006205;28;20224;-76
2023/11/16 06:20:03;;;;;;;2.33;1.20;;;12.30;68.50;14.20;101309.00;;;;5003561;28;20209;-77
2023/11/16 06:22:30;;;;;;;3.92;1.40;;;12.30;68.40;14.20;101302.00;;;;5002913;28;20193;-76
2023/11/16 06:24:59;;;;;;;2.90;1.70;;;12.30;68.40;14.20;101302.00;;;;5010584;28;20287;-77
2023/11/16 06:27:28;;;;;;;2.50;1.25;;;12.30;68.50;14.20;101290.00;;;;5006963;28;20197;-77
2023/11/16 06:29:55;;;;;;;2.28;1.23;;;12.30;68.50;14.20;101287.00;;;;5007205;28;20252;-77
2023/11/16 06:32:22;;;;;;;2.58;1.58;;;12.30;68.50;14.20;101280.00;;;;5000412;28;20223;-75
2023/11/16 06:34:49;;;;;;;2.15;1.50;;;12.40;68.70;14.20;101281.00;;;;4999506;28;20320;-75
2023/11/16 06:37:16;;;;;;;2.10;1.50;;;12.30;69.30;14.20;101277.00;;;;5000938;28;20197;-75
2023/11/16 06:39:43;;;;;;;2.55;1.25;;;12.40;68.60;14.30;101280.00;;;;4999844;28;20197;-74
2023/11/16 06:42:10;;;;;;;2.50;1.80;;;12.40;68.70;14.30;101269.00;;;;4999571;28;20207;-75
2023/11/16 06:44:39;;;;;;;2.53;1.23;;;12.40;68.70;14.30;101278.00;;;;5006874;28;20201;-75
2023/11/16 06:47:06;;;;;;;2.15;1.35;;;12.40;68.70;14.30;101268.00;;;;5008555;28;20230;-77
2023/11/16 06:49:33;;;;;;;2.13;1.70;;;12.40;68.80;14.30;101273.00;;;;5007931;28;20265;-74
2023/11/16 06:52:00;;;;;;;4.45;1.45;;;12.40;68.80;14.30;101271.00;;;;5006866;28;20204;-74
2023/11/16 06:54:31;;;;;;;2.38;1.77;;;12.40;68.80;14.30;101265.00;;;;5007732;28;20328;-74
2023/11/16 06:56:59;;;;;;;2.70;1.83;;;12.40;68.80;14.30;101258.00;;;;5008494;28;20215;-74
2023/11/16 06:59:26;;;;;;;4.00;1.95;;;12.40;68.80;14.30;101261.00;;;;5003754;28;20213;-75
2023/11/16 07:01:56;;;;;;;3.05;1.85;;;12.50;68.90;14.30;101269.00;;;;5003108;28;20197;-75
2023/11/16 07:04:25;;;;;;;2.35;1.65;;;12.50;68.90;14.40;101261.00;;;;5003597;28;20197;-75
2023/11/16 07:06:53;;;;;;;4.38;1.73;;;12.50;68.90;14.40;101253.00;;;;5008308;28;20585;-75
2023/11/16 07:09:20;;;;;;;2.72;2.08;;;12.50;68.90;14.40;101250.00;;;;5008893;28;20232;-76
2023/11/16 07:11:48;;;;;;;2.60;1.95;;;12.50;68.90;14.40;101245.00;;;;4988807;28;20240;-77
2023/11/16 07:14:16;;;;;;;2.75;2.40;;;12.50;68.90;14.40;101237.00;;;;4999257;28;20651;-75
2023/11/16 07:16:43;;;;;;;5.28;2.20;;;12.50;68.90;14.40;101236.00;;;;5007331;28;20309;-76
2023/11/16 07:19:13;;;;;;;4.20;2.55;;;12.50;68.90;14.40;101237.00;;;;5007988;28;20188;-76
2023/11/16 07:21:40;;;;;;;3.47;2.42;;;12.50;69.00;14.40;101232.00;;;;5008763;28;20197;-75
2023/11/16 07:24:10;;;;;;;3.70;2.47;;;12.60;69.00;14.50;101227.00;;;;5008109;28;20203;-76
2023/11/16 07:26:37;;;;;;;4.20;2.30;;;12.60;69.10;14.50;101225.00;;;;5004674;28;20598;-75
2023/11/16 07:29:04;;;;;;;2.72;2.30;;;12.60;69.10;14.50;101225.00;;;;5007234;28;20219;-75
2023/11/16 07:31:31;;;;;;;4.50;2.40;;;12.60;69.10;14.50;101227.00;;;;5006409;28;20220;-75
2023/11/16 07:33:59;;;;;;;6.85;2.92;;;12.70;69.10;14.50;101237.00;;;;5007557;28;20196;-76
2023/11/16 07:36:28;;;;;;;3.13;2.53;;;12.70;69.20;14.50;101235.00;;;;5007376;28;20200;-75
2023/11/16 07:38:58;;;;;;;5.13;3.00;;;12.70;69.30;14.50;101238.00;;;;5008351;28;20225;-76
2023/11/16 07:41:30;;;;;;;3.17;2.72;;;12.70;69.30;14.60;101229.00;;;;5010770;28;20203;-75
2023/11/16 07:43:57;;;;;;;3.83;2.70;;;12.70;69.20;14.60;101229.00;;;;5024660;28;20203;-75
2023/11/16 07:46:24;;;;;;;3.75;3.28;;;12.70;69.20;14.60;101222.00;;;;5010546;28;20193;-75
2023/11/16 07:48:52;;;;;;;3.80;2.88;;;12.70;69.20;14.60;101212.00;;;;5007322;28;20220;-76
2023/11/16 07:51:20;;;;;;;4.68;3.35;;;12.80;69.20;14.70;101221.00;;;;5007894;28;20641;-75
2023/11/16 07:53:53;;;;;;;6.03;3.80;;;12.80;69.30;14.70;101221.00;;;;5007852;28;20197;-75
2023/11/16 07:56:22;;;;;;;5.38;3.88;;;12.80;69.30;14.70;101223.00;;;;5007785;28;20207;-76
2023/11/16 07:58:52;;;;;;;5.20;3.83;;;12.80;69.30;14.70;101232.00;;;;5008781;28;20208;-76
2023/11/16 08:01:28;;;;;;;5.25;3.58;;;12.80;69.30;14.70;101230.00;;;;5007522;28;20280;-76
2023/11/16 08:03:55;;;;;;;6.07;3.80;;;12.90;69.40;14.70;101242.00;;;;5008893;28;20193;-76
2023/11/16 08:06:25;;;;;;;6.10;3.63;;;12.90;69.40;14.80;101248.00;;;;5008139;28;20201;-76
2023/11/16 08:08:53;;;;;;;4.95;3.03;;;12.90;69.40;14.80;101242.00;;;;4999218;28;20251;-75
2023/11/16 08:11:21;;;;;;;4.45;3.28;;;12.90;69.40;14.80;101231.00;;;;5007439;28;20228;-76
2023/11/16 08:13:48;;;;;;;4.90;3.45;;;13.00;69.40;14.80;101220.00;;;;5007855;28;20236;-75
2023/11/16 08:16:20;;;;;;;6.10;3.30;;;13.00;69.40;14.80;101225.00;;;;5009918;28;20663;-75
2023/11/16 08:18:48;;;;;;;5.70;3.38;;;13.00;69.40;14.90;101220.00;;;;5008017;28;20663;-75
2023/11/16 08:21:16;;;;;;;7.88;4.10;;;13.00;69.30;14.90;101218.00;;;;5007515;28;20197;-75
2023/11/16 08:23:45;;;;;;;5.75;3.38;;;13.00;69.20;14.90;101217.00;;;;5007597;28;20205;-75
2023/11/16 08:26:15;;;;;;;5.38;3.78;;;13.00;69.20;14.90;101216.00;;;;5007070;28;20185;-76
2023/11/16 08:28:45;;;;;;;5.30;3.78;;;13.00;69.20;14.90;101200.00;;;;5005079;28;20247;-75
2023/11/16 08:31:13;;;;;;;7.50;3.80;;;13.10;69.20;14.90;101197.00;;;;5005455;28;20633;-75
2023/11/16 08:33:41;;;;;;;7.97;3.72;;;13.10;69.20;14.90;101187.00;;;;5011130;28;20209;-75
2023/11/16 08:36:10;;;;;;;7.15;3.67;;;13.10;69.20;15.00;101176.00;;;;5011073;28;20242;-76
2023/11/16 08:38:41;;;;;;;6.22;4.32;;;13.10;69.20;15.00;101171.00;;;;5011191;28;20215;-75
2023/11/16 08:41:09;;;;;;;8.00;3.67;;;13.10;69.20;15.00;101165.00;;;;5010978;28;20213;-75
2023/11/16 08:43:38;;;;;;;6.15;3.70;;;13.10;69.30;15.00;101172.00;;;;5010777;28;20201;-75
2023/11/16 08:46:07;;;;;;;5.88;3.95;;;13.10;69.20;15.10;101173.00;;;;5010822;28;20200;-75
2023/11/16 08:48:34;;;;;;;5.35;3.60;;;13.20;69.30;15.10;101179.00;;;;5011450;28;20209;-75
2023/11/16 08:51:05;;;;;;;5.97;3.90;;;13.20;69.30;15.10;101173.00;;;;5011328;28;20220;-75
2023/11/16 08:53:33;;;;;;;6.10;3.83;;;13.20;69.30;15.20;101173.00;;;;5010913;28;21095;-75
2023/11/16 08:56:03;;;;;;;4.95;3.60;;;13.20;69.30;15.20;101179.00;;;;5011477;28;20204;-75
2023/11/16 08:58:32;;;;;;;6.05;3.63;;;13.30;69.40;15.20;101187.00;;;;5009137;28;20197;-76
2023/11/16 09:01:03;;;;;;;5.85;3.78;;;13.30;69.40;15.20;101181.00;;;;5009745;28;20291;-75
2023/11/16 09:03:33;;;;;;;5.65;3.40;;;13.30;69.30;15.30;101169.00;;;;5009097;28;20205;-76
2023/11/16 09:06:02;;;;;;;5.70;3.78;;;13.40;69.40;15.30;101168.00;;;;5008819;28;20293;-75
2023/11/16 09:08:29;;;;;;;4.10;3.40;;;13.40;69.30;15.30;101168.00;;;;5015631;28;20201;-76
2023/11/16 09:10:56;;;;;;;6.45;4.05;;;13.40;69.30;15.40;101169.00;;;;5009436;28;20237;-76
2023/11/16 09:13:24;;;;;;;6.97;3.80;;;13.40;69.30;15.40;101171.00;;;;5009298;28;20229;-76
2023/11/16 09:15:51;;;;;;;5.78;3.60;;;13.50;69.40;15.40;101167.00;;;;5019474;28;20572;-76
2023/11/16 09:18:23;;;;;;;8.18;3.65;;;13.50;69.30;15.40;101170.00;;;;5009901;28;20219;-75
2023/11/16 09:20:51;;;;;;;5.75;3.95;;;13.50;69.30;15.50;101165.00;;;;5006889;28;20683;-76
2023/11/16 09:23:20;;;;;;;7.20;4.15;;;13.60;69.30;15.50;101164.00;;;;5009638;28;20580;-76
2023/11/16 09:25:47;;;;;;;6.85;4.13;;;13.60;69.30;15.50;101170.00;;;;4998924;28;20197;-75
2023/11/16 09:28:14;;;;;;;5.88;4.45;;;13.60;69.20;15.50;101175.00;;;;5009949;28;20207;-76
2023/11/16 09:30:43;;;;;;;7.60;4.32;;;13.60;69.20;15.50;101177.00;;;;5009281;28;20332;-75
2023/11/16 09:33:10;;;;;;;6.13;4.25;;;13.70;69.30;15.50;101183.00;;;;5007344;28;20279;-76
2023/11/16 09:35:40;;;;;;;9.32;4.32;;;13.70;69.30;15.60;101183.00;;;;5007819;28;20239;-76
2023/11/16 09:38:11;;;;;;;5.43;4.32;;;13.70;69.30;15.60;101181.00;;;;5008414;28;20205;-75
2023/11/16 09:40:39;;;;;;;4.72;4.25;;;13.70;69.40;15.60;101181.00;;;;5013723;28;20199;-75
2023/11/16 09:43:24;;;;;;;8.27;3.72;;;13.80;69.50;15.70;101185.00;;;;5029528;28;20701;-76
2023/11/16 09:45:53;;;;;;;8.45;4.30;;;13.80;69.40;15.70;101182.00;;;;5012734;28;20276;-76
2023/11/16 09:50:53;;;;;;;8.77;4.65;;;13.80;69.20;15.70;101180.00;;;;4998119;22;20924;-76
2023/11/16 09:53:23;;;;;;;8.23;4.47;;;13.80;69.10;15.70;101182.00;;;;5024200;28;20200;-76
2023/11/16 09:55:57;;;;;;;5.47;4.70;;;13.90;69.10;15.70;101172.00;;;;5026994;28;20192;-76
2023/11/16 09:58:27;;;;;;;7.38;4.57;;;13.90;69.10;15.70;101166.00;;;;5026952;28;20771;-77
2023/11/16 10:00:56;;;;;;;9.65;4.60;;;13.90;68.90;15.80;101164.00;;;;5028115;28;21106;-76
2023/11/16 10:03:26;;;;;;;9.02;5.13;;;13.90;68.90;15.70;101156.00;;;;5027657;28;20199;-76
2023/11/16 10:05:56;;;;;;;8.13;4.93;;;13.90;68.90;15.70;101164.00;;;;5023451;28;20310;-76
2023/11/16 10:08:27;;;;;;;8.70;6.03;;;13.90;68.90;15.80;101162.00;;;;5012334;28;20212;-76
2023/11/16 10:10:55;;;;;;;8.60;5.50;;;13.90;68.80;15.80;101165.00;;;;5026011;28;20323;-76
2023/11/16 10:13:24;;;;;;;7.93;5.68;;;13.90;68.70;15.80;101159.00;;;;5027118;28;20423;-76
2023/11/16 10:15:53;;;;;;;6.07;5.13;;;13.90;68.70;15.80;101161.00;;;;5029647;28;20224;-75
2023/11/16 10:18:21;;;;;;;8.45;5.78;;;13.90;68.80;15.80;101155.00;;;;5028808;28;20214;-75
2023/11/16 10:20:49;;;;;;;9.65;5.20;;;13.90;68.80;15.80;101161.00;;;;5026727;28;20243;-76
2023/11/16 10:23:20;;;;;;;12.07;5.82;;;13.90;68.90;15.80;101161.00;;;;5028373;28;20196;-75
2023/11/16 10:25:48;;;;;;;9.00;5.50;;;13.90;68.90;15.80;101156.00;;;;5027968;28;20205;-76
2023/11/16 10:28:20;;;;;;;9.50;5.90;;;13.90;68.90;15.80;101157.00;;;;5028390;28;20258;-76
2023/11/16 10:30:50;;;;;;;8.48;5.85;;;13.90;68.70;15.80;101148.00;;;;5028773;28;20220;-76
2023/11/16 10:33:20;;;;;;;13.65;6.47;;;13.90;68.70;15.80;101154.00;;;;5028146;28;20303;-75
2023/11/16 10:35:49;;;;;;;9.20;5.68;;;14.00;68.70;15.80;101145.00;;;;5029453;28;20577;-76
2023/11/16 10:38:21;;;;;;;9.02;7.05;;;13.90;68.60;15.80;101142.00;;;;5028720;28;20292;-76
2023/11/16 10:40:51;;;;;;;11.38;7.03;;;14.00;68.70;15.80;101134.00;;;;5028768;28;20250;-76
2023/11/16 10:43:22;;;;;;;11.63;6.90;;;14.00;68.70;15.80;101130.00;;;;5027640;28;20196;-76
2023/11/16 10:45:53;;;;;;;9.52;6.75;;;14.00;68.60;15.80;101134.00;;;;5028338;28;20196;-76
2023/11/16 10:48:21;;;;;;;11.10;6.78;;;14.00;68.60;15.90;101126.00;;;;5028170;28;20200;-76
2023/11/16 10:50:48;;;;;;;9.23;7.30;;;14.00;68.60;15.90;101113.00;;;;5026952;28;20223;-76
2023/11/16 10:53:22;;;;;;;11.27;7.97;;;14.00;68.60;15.80;101113.00;;;;5028722;28;20196;-76
2023/11/16 10:55:52;;;;;;;10.45;8.02;;;14.00;68.60;15.90;101103.00;;;;5028269;28;20200;-76